Weather at Avnø Air Base [CLOSED]

Public forecast

Using degrees Celsius for public forecast. Weather courtesy of forecast.io.

Current aviation weather report (METAR) for Avnø Air Base

Report is more than 6 hours old.

Retrieved 2016/10/04 04:20 UTC (5 years ago):

EKAV 040420Z AUTO ///// 9999NDV NCD ///// Q1039

Closest aviation forecast (TAF) to Avnø Air Base

Forecast is more than 12 hours old.

Closest forecast is Copenhagen Roskilde Airport, 32.4 nm (60.1 km) NNE. Retrieved 2020/10/13 06:33 UTC (7 months ago):

TAF EKRK 130526Z 1306/1415 09004KT 0200 FG VV001 TEMPO 1306/1307 6000 NSW NSC BECMG 1307/1309 9999 NSW FEW020